createdAt,value
2023-05-15T00:02:11.653Z,33.12
2023-05-15T00:04:39.001Z,33.98
2023-05-15T00:07:06.000Z,34.96
2023-05-15T00:09:32.995Z,35.57
2023-05-15T00:12:00.450Z,35.03
2023-05-15T00:14:27.250Z,34.53
2023-05-15T00:16:54.084Z,34.35
2023-05-15T00:19:20.976Z,34.27
2023-05-15T00:21:47.907Z,34.31
2023-05-15T00:24:14.840Z,34.40
2023-05-15T00:26:41.842Z,34.26
2023-05-15T00:29:09.785Z,34.09
2023-05-15T00:31:36.832Z,34.04
2023-05-15T00:34:03.767Z,33.90
2023-05-15T00:36:30.982Z,33.71
2023-05-15T00:38:58.034Z,33.83
2023-05-15T00:41:25.205Z,34.05
2023-05-15T00:43:52.399Z,34.11
2023-05-15T00:46:20.191Z,34.05
2023-05-15T00:48:47.172Z,33.82
2023-05-15T00:51:14.124Z,33.91
2023-05-15T00:53:40.970Z,33.66
2023-05-15T00:56:08.014Z,33.60
2023-05-15T00:58:34.996Z,33.67
2023-05-15T01:01:01.984Z,33.94
2023-05-15T01:03:29.196Z,34.01
2023-05-15T01:05:56.116Z,34.06
2023-05-15T01:08:28.182Z,34.15
2023-05-15T01:10:55.001Z,34.18
2023-05-15T01:13:22.662Z,34.28
2023-05-15T01:15:49.986Z,34.47
2023-05-15T01:18:17.192Z,34.59
2023-05-15T01:20:55.801Z,34.60
2023-05-15T01:23:51.090Z,34.55
2023-05-15T01:26:36.834Z,34.57
2023-05-15T01:29:15.051Z,34.55
2023-05-15T01:31:42.436Z,34.61
2023-05-15T01:34:10.202Z,34.67
2023-05-15T01:36:44.323Z,34.79
2023-05-15T01:39:11.262Z,34.96
2023-05-15T01:42:07.817Z,35.11
2023-05-15T01:44:37.069Z,35.14
2023-05-15T01:47:10.455Z,35.07
2023-05-15T01:49:37.825Z,34.83
2023-05-15T01:52:20.756Z,34.80
2023-05-15T01:54:47.692Z,34.87
2023-05-15T01:57:14.641Z,34.99
2023-05-15T01:59:42.524Z,35.14
2023-05-15T02:02:09.524Z,35.13
2023-05-15T02:04:37.549Z,35.17
2023-05-15T02:07:05.128Z,35.41
2023-05-15T02:09:32.320Z,35.57
2023-05-15T02:12:01.389Z,35.64
2023-05-15T02:14:31.668Z,35.72
2023-05-15T02:16:58.653Z,35.76
2023-05-15T02:19:27.538Z,35.78
2023-05-15T02:21:54.692Z,35.85
2023-05-15T02:24:21.652Z,35.81
2023-05-15T02:27:05.309Z,35.84
2023-05-15T02:30:03.664Z,35.85
2023-05-15T02:32:58.776Z,36.01
2023-05-15T02:35:39.415Z,36.13
2023-05-15T02:38:09.338Z,36.31
2023-05-15T02:40:36.838Z,36.65
2023-05-15T02:43:05.985Z,36.91
2023-05-15T02:45:32.896Z,36.87
2023-05-15T02:47:59.836Z,36.79
2023-05-15T02:50:26.944Z,36.77
2023-05-15T02:53:05.354Z,36.73
2023-05-15T02:55:32.321Z,36.57
2023-05-15T02:57:59.282Z,36.42
2023-05-15T03:00:26.412Z,36.35
2023-05-15T03:02:53.479Z,36.49
2023-05-15T03:05:21.008Z,36.48
2023-05-15T03:07:48.085Z,36.42
2023-05-15T03:10:15.035Z,36.39
2023-05-15T03:12:41.945Z,36.37
2023-05-15T03:15:09.452Z,36.44
2023-05-15T03:17:36.464Z,36.45
2023-05-15T03:20:05.259Z,36.62
2023-05-15T03:22:32.386Z,36.76
2023-05-15T03:24:59.284Z,36.82
2023-05-15T03:27:26.664Z,36.79
2023-05-15T03:29:53.610Z,36.80
2023-05-15T03:32:21.071Z,36.70
2023-05-15T03:34:48.029Z,36.50
2023-05-15T03:37:14.905Z,36.28
2023-05-15T03:39:41.933Z,36.20
2023-05-15T03:42:08.880Z,36.10
2023-05-15T03:44:35.785Z,36.34
2023-05-15T03:47:02.719Z,36.68
2023-05-15T03:49:29.730Z,36.92
2023-05-15T03:51:57.929Z,37.02
2023-05-15T03:54:24.874Z,36.87
2023-05-15T03:56:53.090Z,36.83
2023-05-15T03:59:19.989Z,36.86
2023-05-15T04:02:02.922Z,36.92
2023-05-15T04:04:31.105Z,36.74
2023-05-15T04:06:57.989Z,36.65
2023-05-15T04:09:24.901Z,36.69
2023-05-15T04:11:51.846Z,36.66
2023-05-15T04:14:18.807Z,36.64
2023-05-15T04:16:45.887Z,36.62
2023-05-15T04:19:12.974Z,36.43
2023-05-15T04:21:39.970Z,36.07
2023-05-15T04:24:07.657Z,36.26
2023-05-15T04:26:34.738Z,36.59
2023-05-15T04:29:04.299Z,36.61
2023-05-15T04:31:31.983Z,36.61
2023-05-15T04:33:58.942Z,36.23
2023-05-15T04:36:25.796Z,35.60
2023-05-15T04:38:52.781Z,35.64
2023-05-15T04:41:19.662Z,35.91
2023-05-15T04:43:46.852Z,35.95
2023-05-15T04:46:13.793Z,35.85
2023-05-15T04:48:40.823Z,35.69
2023-05-15T04:51:08.008Z,35.39
2023-05-15T04:53:34.888Z,35.25
2023-05-15T04:56:01.787Z,35.11
2023-05-15T04:58:28.666Z,34.96
2023-05-15T05:00:55.633Z,34.90
2023-05-15T05:03:23.118Z,34.58
2023-05-15T05:05:50.131Z,34.49
2023-05-15T05:08:17.154Z,34.93
2023-05-15T05:10:44.208Z,36.07
2023-05-15T05:13:11.093Z,36.80
2023-05-15T05:15:38.277Z,37.62
2023-05-15T05:18:06.263Z,38.50
2023-05-15T05:20:33.235Z,39.29
2023-05-15T05:23:00.225Z,39.94
2023-05-15T05:25:27.229Z,40.82
2023-05-15T05:27:54.158Z,41.41
2023-05-15T05:30:22.481Z,41.93
2023-05-15T05:32:49.595Z,42.57
2023-05-15T05:35:16.598Z,43.17
2023-05-15T05:37:43.513Z,43.26
2023-05-15T05:40:11.036Z,43.21
2023-05-15T05:42:38.070Z,42.84
2023-05-15T05:45:06.782Z,42.16
2023-05-15T05:47:34.240Z,41.07
2023-05-15T05:50:01.148Z,39.61
2023-05-15T05:52:29.174Z,37.35
2023-05-15T05:54:56.124Z,36.04
2023-05-15T05:57:23.040Z,36.00
2023-05-15T05:59:50.087Z,36.03
2023-05-15T06:02:17.097Z,36.15
2023-05-15T06:04:44.197Z,36.24
2023-05-15T06:07:11.293Z,36.38
2023-05-15T06:09:38.177Z,36.25
2023-05-15T06:12:05.776Z,36.13
2023-05-15T06:14:32.760Z,36.02
2023-05-15T06:17:01.226Z,35.28
2023-05-15T06:19:29.271Z,34.63
2023-05-15T06:21:56.155Z,33.89
2023-05-15T06:24:23.248Z,33.71
2023-05-15T06:26:50.637Z,33.58
2023-05-15T06:29:19.343Z,32.61
2023-05-15T06:31:46.182Z,32.61
2023-05-15T06:34:13.156Z,32.64
2023-05-15T06:36:40.718Z,31.30
2023-05-15T06:39:10.825Z,30.67
2023-05-15T06:41:38.214Z,30.86
2023-05-15T06:44:05.217Z,30.70
2023-05-15T06:46:32.147Z,30.59
2023-05-15T06:48:59.064Z,29.79
2023-05-15T06:51:25.958Z,29.17
2023-05-15T06:53:52.871Z,28.86
2023-05-15T06:56:19.737Z,28.29
2023-05-15T06:58:46.578Z,27.66
2023-05-15T07:01:14.010Z,27.18
2023-05-15T07:03:43.109Z,26.51
2023-05-15T07:06:09.986Z,26.05
2023-05-15T07:08:36.936Z,25.62
2023-05-15T07:11:04.216Z,25.89
2023-05-15T07:13:31.106Z,25.58
2023-05-15T07:15:58.099Z,24.46
2023-05-15T07:18:24.940Z,23.37
2023-05-15T07:20:51.831Z,22.73
2023-05-15T07:23:18.726Z,22.32
2023-05-15T07:25:46.202Z,21.58
2023-05-15T07:28:13.201Z,19.74
2023-05-15T07:30:40.079Z,18.10
2023-05-15T07:33:07.142Z,16.14
2023-05-15T07:35:34.192Z,15.40
2023-05-15T07:38:01.545Z,14.84
2023-05-15T07:40:28.513Z,14.40
2023-05-15T07:42:55.391Z,14.24
2023-05-15T07:45:22.551Z,13.66
2023-05-15T07:47:49.794Z,12.74
2023-05-15T07:50:16.824Z,12.03
2023-05-15T07:52:44.205Z,11.99
2023-05-15T07:55:11.293Z,11.70
2023-05-15T07:57:38.429Z,11.70
2023-05-15T08:00:11.073Z,12.15
2023-05-15T08:02:41.821Z,12.94
2023-05-15T08:05:08.902Z,13.87
2023-05-15T08:07:36.153Z,14.52
2023-05-15T08:10:06.415Z,15.41
2023-05-15T08:12:33.528Z,16.05
2023-05-15T08:15:00.397Z,16.49
2023-05-15T08:17:27.283Z,17.07
2023-05-15T08:19:54.360Z,17.57
2023-05-15T08:22:21.304Z,17.90
2023-05-15T08:24:48.795Z,18.26
2023-05-15T08:27:15.600Z,18.54
2023-05-15T08:29:42.479Z,18.84
2023-05-15T08:32:09.600Z,19.39
2023-05-15T08:34:36.481Z,19.81
2023-05-15T08:37:04.378Z,20.13
2023-05-15T08:39:31.290Z,20.49
2023-05-15T08:42:11.520Z,20.80
2023-05-15T08:44:39.371Z,20.71
2023-05-15T08:47:06.577Z,20.51
2023-05-15T08:49:42.286Z,20.66
2023-05-15T08:52:09.335Z,20.87
2023-05-15T08:54:36.219Z,20.95
2023-05-15T08:57:03.161Z,20.85
2023-05-15T08:59:30.030Z,20.77
2023-05-15T09:01:57.338Z,20.81
2023-05-15T09:04:24.341Z,20.88
2023-05-15T09:06:51.323Z,20.82
2023-05-15T09:09:18.755Z,21.08
2023-05-15T09:11:46.535Z,21.48
2023-05-15T09:14:13.433Z,21.30
2023-05-15T09:16:40.370Z,21.19
2023-05-15T09:19:07.371Z,21.36
2023-05-15T09:21:34.463Z,21.23
2023-05-15T09:24:18.163Z,21.22
2023-05-15T09:26:46.166Z,20.94
2023-05-15T09:29:18.071Z,21.07
2023-05-15T09:31:48.769Z,21.17
2023-05-15T09:34:15.787Z,21.18
2023-05-15T09:36:45.071Z,21.12
2023-05-15T09:39:12.193Z,21.30
2023-05-15T09:41:41.931Z,21.19
2023-05-15T09:44:20.651Z,21.23
2023-05-15T09:46:48.678Z,21.48
2023-05-15T09:49:15.722Z,21.51
2023-05-15T09:51:44.502Z,21.21
2023-05-15T09:54:16.095Z,20.67
2023-05-15T09:56:47.337Z,20.34
2023-05-15T09:59:15.851Z,20.18
2023-05-15T10:01:46.177Z,20.21
2023-05-15T10:04:14.104Z,20.47
2023-05-15T10:06:43.363Z,20.33
2023-05-15T10:09:11.181Z,20.05
2023-05-15T10:11:39.351Z,20.14
2023-05-15T10:14:07.257Z,20.27
2023-05-15T10:16:36.068Z,20.37
2023-05-15T10:19:05.320Z,20.38
2023-05-15T10:21:33.875Z,20.08
2023-05-15T10:24:01.292Z,19.78
2023-05-15T10:26:39.687Z,19.51
2023-05-15T10:29:08.743Z,19.19
2023-05-15T10:31:36.727Z,19.12
2023-05-15T10:34:07.327Z,19.00
2023-05-15T10:36:35.010Z,19.00
2023-05-15T10:39:03.222Z,19.19
2023-05-15T10:41:30.919Z,19.09
2023-05-15T10:43:59.319Z,19.22
2023-05-15T10:46:27.107Z,19.28
2023-05-15T10:48:54.501Z,19.32
2023-05-15T10:51:27.588Z,19.25
2023-05-15T10:53:55.467Z,19.06
2023-05-15T10:56:37.805Z,19.07
2023-05-15T10:59:09.527Z,19.41
2023-05-15T11:01:37.928Z,19.24
2023-05-15T11:04:08.208Z,19.24
2023-05-15T11:06:35.844Z,19.47
2023-05-15T11:09:21.930Z,19.51
2023-05-15T11:11:52.052Z,19.80
2023-05-15T11:14:19.739Z,19.61
2023-05-15T11:16:52.784Z,19.53
2023-05-15T11:19:22.768Z,19.31
2023-05-15T11:22:06.216Z,19.11
2023-05-15T11:24:46.844Z,19.13
2023-05-15T11:27:16.799Z,19.27
2023-05-15T11:30:16.074Z,19.39
2023-05-15T11:32:52.755Z,19.27
2023-05-15T11:35:22.806Z,19.09
2023-05-15T11:37:51.464Z,19.19
2023-05-15T11:40:31.976Z,19.29
2023-05-15T11:43:08.780Z,19.15
2023-05-15T11:45:37.973Z,19.11
2023-05-15T11:48:08.736Z,19.13
2023-05-15T11:50:35.944Z,19.24
2023-05-15T11:53:06.555Z,19.24
2023-05-15T11:55:34.461Z,19.19
2023-05-15T11:58:01.828Z,19.32
2023-05-15T12:00:28.869Z,19.32
2023-05-15T12:02:56.362Z,19.45
2023-05-15T12:05:23.700Z,19.47
2023-05-15T12:07:50.658Z,19.41
2023-05-15T12:10:17.570Z,19.35
2023-05-15T12:12:46.064Z,19.29
2023-05-15T12:15:13.743Z,19.45
2023-05-15T12:17:41.158Z,19.22
2023-05-15T12:20:10.947Z,19.37
2023-05-15T12:22:42.638Z,19.40
2023-05-15T12:25:11.479Z,19.50
2023-05-15T12:27:39.359Z,19.33
2023-05-15T12:30:07.140Z,19.08
2023-05-15T12:32:35.158Z,18.90
2023-05-15T12:35:03.057Z,18.98
2023-05-15T12:37:35.977Z,19.02
2023-05-15T12:40:12.229Z,18.79
2023-05-15T12:42:42.849Z,18.93
2023-05-15T12:45:16.869Z,19.18
2023-05-15T12:47:44.874Z,19.24
2023-05-15T12:50:22.061Z,19.16
2023-05-15T12:52:53.449Z,19.32
2023-05-15T12:55:27.656Z,19.47
2023-05-15T12:57:58.063Z,19.66
2023-05-15T13:00:25.286Z,19.70
2023-05-15T13:02:53.591Z,19.52
2023-05-15T13:05:22.730Z,19.45
2023-05-15T13:07:49.559Z,19.51
2023-05-15T13:10:16.576Z,19.49
2023-05-15T13:12:45.477Z,19.43
2023-05-15T13:15:51.224Z,19.43
2023-05-15T13:18:18.639Z,19.50
2023-05-15T13:20:50.321Z,19.55
2023-05-15T13:23:21.307Z,19.69
2023-05-15T13:25:48.160Z,19.63
2023-05-15T13:28:15.474Z,19.60
2023-05-15T13:30:42.835Z,19.59
2023-05-15T13:33:10.882Z,19.61
2023-05-15T13:35:38.273Z,19.65
2023-05-15T13:38:05.118Z,19.75
2023-05-15T13:40:37.902Z,19.97
2023-05-15T13:43:07.003Z,19.99
2023-05-15T13:45:34.050Z,19.99
2023-05-15T13:48:01.094Z,20.18
2023-05-15T13:50:28.201Z,20.60
2023-05-15T13:52:56.035Z,20.76
2023-05-15T13:55:23.499Z,20.55
2023-05-15T13:57:51.654Z,20.42
2023-05-15T14:00:19.896Z,20.46
2023-05-15T14:02:46.928Z,20.25
2023-05-15T14:05:14.696Z,20.03
2023-05-15T14:07:41.668Z,20.22
2023-05-15T14:10:10.082Z,20.43
2023-05-15T14:12:37.745Z,20.46
2023-05-15T14:15:05.281Z,20.31
2023-05-15T14:17:32.264Z,20.41
2023-05-15T14:19:59.220Z,20.36
2023-05-15T14:22:26.093Z,20.35
2023-05-15T14:24:53.246Z,20.45
2023-05-15T14:27:20.456Z,20.31
2023-05-15T14:29:49.441Z,20.28
2023-05-15T14:32:17.013Z,20.36
2023-05-15T14:34:44.397Z,20.52
2023-05-15T14:37:11.502Z,20.58
2023-05-15T14:39:38.400Z,20.68
2023-05-15T14:42:06.483Z,20.65
2023-05-15T14:44:36.325Z,20.78
2023-05-15T14:47:12.923Z,20.50
2023-05-15T14:49:40.046Z,20.38
2023-05-15T14:52:09.301Z,20.54
2023-05-15T14:54:36.373Z,20.59
2023-05-15T14:57:03.969Z,20.40
2023-05-15T14:59:30.994Z,20.42
2023-05-15T15:01:58.204Z,20.33
2023-05-15T15:04:26.839Z,20.17
2023-05-15T15:06:57.041Z,20.15
2023-05-15T15:09:25.231Z,19.96
2023-05-15T15:11:52.880Z,20.19
2023-05-15T15:14:19.699Z,20.28
2023-05-15T15:16:46.856Z,20.39
2023-05-15T15:19:15.118Z,20.31
2023-05-15T15:21:43.544Z,20.19
2023-05-15T15:24:10.595Z,20.26
2023-05-15T15:26:37.667Z,20.26
2023-05-15T15:29:04.507Z,20.25
2023-05-15T15:31:31.877Z,20.11
2023-05-15T15:33:59.035Z,20.14
2023-05-15T15:36:25.993Z,20.32
2023-05-15T15:38:52.836Z,20.36
2023-05-15T15:41:21.761Z,20.39
2023-05-15T15:43:48.741Z,20.32
2023-05-15T15:46:15.772Z,20.45
2023-05-15T15:48:42.680Z,20.56
2023-05-15T15:51:09.520Z,20.64
2023-05-15T15:53:36.363Z,20.75
2023-05-15T15:56:03.258Z,20.96
2023-05-15T15:58:30.206Z,20.95
2023-05-15T16:00:57.908Z,21.00
2023-05-15T16:03:25.190Z,21.11
2023-05-15T16:05:52.060Z,21.13
2023-05-15T16:08:19.004Z,21.22
2023-05-15T16:10:45.937Z,21.39
2023-05-15T16:13:13.302Z,21.47
2023-05-15T16:15:40.775Z,21.34
2023-05-15T16:18:07.860Z,21.48
2023-05-15T16:20:35.409Z,21.63
2023-05-15T16:23:02.509Z,21.67
2023-05-15T16:25:29.432Z,21.84
2023-05-15T16:27:56.301Z,21.88
2023-05-15T16:30:28.237Z,21.94
2023-05-15T16:33:01.536Z,22.25
2023-05-15T16:35:28.567Z,22.24
2023-05-15T16:37:55.532Z,22.45
2023-05-15T16:40:22.419Z,22.49
2023-05-15T16:42:49.423Z,22.51
2023-05-15T16:45:16.588Z,22.60
2023-05-15T16:47:43.572Z,22.82
2023-05-15T16:50:10.879Z,22.82
2023-05-15T16:52:39.171Z,22.95
2023-05-15T16:55:06.929Z,22.96
2023-05-15T16:57:33.714Z,22.86
2023-05-15T17:00:00.629Z,22.91
2023-05-15T17:02:27.633Z,23.06
2023-05-15T17:04:55.352Z,23.08
2023-05-15T17:07:22.221Z,23.13
2023-05-15T17:09:49.353Z,23.17
2023-05-15T17:12:16.270Z,23.09
2023-05-15T17:14:43.476Z,23.18
2023-05-15T17:17:10.615Z,23.27
2023-05-15T17:19:37.512Z,23.08
2023-05-15T17:22:04.530Z,23.19
2023-05-15T17:24:42.622Z,23.29
2023-05-15T17:27:18.444Z,23.55
2023-05-15T17:29:46.133Z,23.60
2023-05-15T17:32:13.621Z,23.38
2023-05-15T17:34:40.771Z,23.39
2023-05-15T17:37:08.149Z,23.59
2023-05-15T17:39:35.715Z,23.78
2023-05-15T17:42:03.469Z,23.89
2023-05-15T17:44:31.295Z,24.07
2023-05-15T17:46:58.796Z,24.13
2023-05-15T17:49:26.520Z,24.34
2023-05-15T17:51:53.860Z,24.41
2023-05-15T17:54:20.900Z,24.44
2023-05-15T17:56:48.207Z,24.74
2023-05-15T17:59:15.765Z,24.70
2023-05-15T18:01:42.737Z,24.74
2023-05-15T18:04:10.097Z,24.76
2023-05-15T18:06:37.289Z,24.90
2023-05-15T18:09:04.951Z,24.81
2023-05-15T18:11:32.021Z,24.99
2023-05-15T18:13:58.894Z,24.88
2023-05-15T18:16:25.967Z,25.11
2023-05-15T18:18:53.128Z,25.17
2023-05-15T18:21:20.210Z,25.15
2023-05-15T18:23:47.369Z,25.21
2023-05-15T18:26:14.433Z,25.18
2023-05-15T18:28:41.302Z,25.22
2023-05-15T18:31:08.310Z,25.24
2023-05-15T18:33:35.378Z,25.31
2023-05-15T18:36:02.491Z,25.26
2023-05-15T18:38:30.204Z,25.40
2023-05-15T18:40:57.052Z,25.49
2023-05-15T18:43:23.856Z,25.50
2023-05-15T18:45:50.749Z,25.54
2023-05-15T18:48:17.622Z,25.70
2023-05-15T18:50:44.654Z,25.75
2023-05-15T18:53:11.477Z,25.77
2023-05-15T18:55:39.488Z,25.96
2023-05-15T18:58:06.428Z,25.89
2023-05-15T19:00:38.730Z,26.05
2023-05-15T19:03:07.038Z,26.03
2023-05-15T19:05:34.377Z,26.00
2023-05-15T19:08:02.123Z,25.99
2023-05-15T19:10:29.837Z,26.06
2023-05-15T19:12:57.555Z,26.07
2023-05-15T19:15:24.962Z,26.11
2023-05-15T19:17:52.344Z,26.12
2023-05-15T19:20:19.653Z,26.09
2023-05-15T19:22:46.682Z,26.15
2023-05-15T19:25:13.599Z,26.11
2023-05-15T19:27:40.604Z,26.26
2023-05-15T19:30:09.525Z,26.17
2023-05-15T19:32:37.048Z,26.23
2023-05-15T19:35:04.735Z,26.35
2023-05-15T19:37:31.669Z,26.41
2023-05-15T19:39:58.650Z,26.41
2023-05-15T19:42:26.484Z,26.42
2023-05-15T19:44:53.450Z,26.59
2023-05-15T19:47:20.799Z,26.66
2023-05-15T19:49:47.625Z,26.64
2023-05-15T19:52:15.914Z,26.71
2023-05-15T19:54:42.908Z,26.76
2023-05-15T19:57:09.846Z,26.68
2023-05-15T19:59:36.793Z,26.73
2023-05-15T20:02:05.344Z,26.82
2023-05-15T20:04:34.005Z,26.93
2023-05-15T20:07:00.909Z,26.87
2023-05-15T20:09:27.744Z,26.99
2023-05-15T20:11:54.818Z,26.96
2023-05-15T20:14:21.868Z,27.06
2023-05-15T20:16:49.068Z,27.04
2023-05-15T20:19:17.143Z,27.13
2023-05-15T20:21:44.203Z,27.09
2023-05-15T20:24:12.242Z,27.15
2023-05-15T20:26:39.184Z,27.29
2023-05-15T20:29:06.005Z,27.37
2023-05-15T20:31:33.785Z,27.32
2023-05-15T20:34:01.108Z,27.47
2023-05-15T20:36:28.438Z,27.59
2023-05-15T20:38:56.025Z,27.52
2023-05-15T20:41:23.285Z,27.56
2023-05-15T20:43:50.507Z,27.67
2023-05-15T20:46:17.585Z,27.61
2023-05-15T20:48:44.701Z,27.62
2023-05-15T20:51:11.615Z,27.81
2023-05-15T20:53:38.494Z,27.87
2023-05-15T20:56:05.549Z,27.87
2023-05-15T20:58:32.454Z,27.98
2023-05-15T21:01:01.348Z,28.06
2023-05-15T21:03:29.059Z,28.21
2023-05-15T21:05:57.469Z,28.35
2023-05-15T21:08:24.701Z,28.33
2023-05-15T21:10:53.417Z,28.49
2023-05-15T21:13:20.408Z,28.60
2023-05-15T21:15:47.276Z,28.64
2023-05-15T21:18:14.219Z,28.82
2023-05-15T21:20:41.911Z,28.93
2023-05-15T21:23:08.933Z,28.96
2023-05-15T21:25:37.005Z,29.11
2023-05-15T21:28:04.288Z,29.28
2023-05-15T21:30:31.766Z,29.44
2023-05-15T21:32:59.208Z,29.56
2023-05-15T21:35:29.130Z,29.69
2023-05-15T21:37:56.041Z,29.78
2023-05-15T21:40:22.903Z,29.84
2023-05-15T21:42:49.951Z,29.89
2023-05-15T21:45:17.593Z,30.15
2023-05-15T21:47:44.614Z,30.23
2023-05-15T21:50:11.803Z,30.27
2023-05-15T21:52:38.704Z,30.56
2023-05-15T21:55:06.337Z,30.76
2023-05-15T21:57:33.169Z,30.83
2023-05-15T22:00:00.219Z,30.92
2023-05-15T22:02:27.117Z,31.08
2023-05-15T22:04:53.977Z,31.07
2023-05-15T22:07:20.832Z,30.98
2023-05-15T22:09:47.663Z,30.88
2023-05-15T22:12:14.522Z,30.89
2023-05-15T22:14:54.564Z,30.95
2023-05-15T22:17:27.349Z,31.03
2023-05-15T22:19:54.360Z,31.01
2023-05-15T22:22:21.519Z,31.01
2023-05-15T22:24:48.694Z,31.11
2023-05-15T22:27:16.892Z,31.27
2023-05-15T22:29:43.844Z,31.40
2023-05-15T22:32:10.807Z,31.43
2023-05-15T22:34:37.721Z,31.63
2023-05-15T22:37:05.033Z,31.74
2023-05-15T22:39:33.233Z,31.80
2023-05-15T22:42:00.137Z,31.94
2023-05-15T22:44:28.622Z,32.04
2023-05-15T22:46:55.583Z,32.03
2023-05-15T22:49:25.888Z,32.21
2023-05-15T22:51:57.485Z,32.24
2023-05-15T22:54:24.375Z,32.38
2023-05-15T22:56:52.457Z,32.41
2023-05-15T22:59:19.808Z,32.45
2023-05-15T23:01:46.922Z,32.54
2023-05-15T23:04:14.241Z,32.56
2023-05-15T23:06:41.439Z,32.61
2023-05-15T23:09:08.683Z,32.64
2023-05-15T23:11:35.630Z,32.70
2023-05-15T23:14:03.101Z,32.78
2023-05-15T23:16:31.061Z,32.81
2023-05-15T23:18:58.260Z,32.90
2023-05-15T23:21:25.498Z,32.94
2023-05-15T23:23:52.383Z,33.00
2023-05-15T23:26:19.353Z,33.14
2023-05-15T23:28:46.305Z,33.23
2023-05-15T23:31:14.288Z,33.29
2023-05-15T23:33:41.450Z,33.40
2023-05-15T23:36:08.996Z,33.38
2023-05-15T23:38:35.970Z,33.53
2023-05-15T23:41:02.882Z,33.63
2023-05-15T23:43:30.045Z,33.67
2023-05-15T23:45:56.861Z,33.68
2023-05-15T23:48:23.840Z,33.71
2023-05-15T23:50:52.534Z,33.71
2023-05-15T23:53:19.588Z,33.70
2023-05-15T23:55:46.551Z,33.76
2023-05-15T23:58:13.406Z,33.79
